createdAt,value
2023-01-23T00:00:08.538Z,99.01
2023-01-23T00:00:47.484Z,99.06
2023-01-23T00:01:47.455Z,99.15
2023-01-23T00:02:47.415Z,99.34
2023-01-23T00:03:47.416Z,99.06
2023-01-23T00:04:47.327Z,99.44
2023-01-23T00:06:08.316Z,98.91
2023-01-23T00:06:47.256Z,99.06
2023-01-23T00:07:47.272Z,99.44
2023-01-23T00:08:47.174Z,98.96
2023-01-23T00:09:47.148Z,99.44
2023-01-23T00:10:47.096Z,99.06
2023-01-23T00:12:08.048Z,99.44
2023-01-23T00:12:47.007Z,99.53
2023-01-23T00:13:46.980Z,99.53
2023-01-23T00:14:46.924Z,99.34
2023-01-23T00:15:46.934Z,99.44
2023-01-23T00:16:46.855Z,99.44
2023-01-23T00:18:07.809Z,99.44
2023-01-23T00:18:46.768Z,99.39
2023-01-23T00:19:46.733Z,99.53
2023-01-23T00:20:46.690Z,99.53
2023-01-23T00:21:46.640Z,98.96
2023-01-23T00:22:46.614Z,99.29
2023-01-23T00:24:13.508Z,99.06
2023-01-23T00:24:46.584Z,99.06
2023-01-23T00:25:46.494Z,99.15
2023-01-23T00:26:46.437Z,99.01
2023-01-23T00:27:46.403Z,99.15
2023-01-23T00:28:46.365Z,99.53
2023-01-23T00:30:07.337Z,99.53
2023-01-23T00:30:46.321Z,98.87
2023-01-23T00:31:46.344Z,99.15
2023-01-23T00:32:46.212Z,99.15
2023-01-23T00:33:46.182Z,99.53
2023-01-23T00:34:46.121Z,99.34
2023-01-23T00:36:07.080Z,99.25
2023-01-23T00:36:46.049Z,99.25
2023-01-23T00:37:46.049Z,99.53
2023-01-23T00:38:45.966Z,99.25
2023-01-23T00:39:45.970Z,99.63
2023-01-23T00:40:45.944Z,99.53
2023-01-23T00:42:06.844Z,99.53
2023-01-23T00:42:45.801Z,99.34
2023-01-23T00:43:45.769Z,99.44
2023-01-23T00:44:45.712Z,99.34
2023-01-23T00:45:45.688Z,99.25
2023-01-23T00:46:45.689Z,99.25
2023-01-23T00:48:06.593Z,99.44
2023-01-23T00:48:45.565Z,99.25
2023-01-23T00:49:45.519Z,99.44
2023-01-23T00:50:45.532Z,99.44
2023-01-23T00:51:45.452Z,99.15
2023-01-23T00:52:45.404Z,99.34
2023-01-23T00:54:06.360Z,99.34
2023-01-23T00:54:45.318Z,99.44
2023-01-23T00:55:45.284Z,99.67
2023-01-23T00:56:45.298Z,99.25
2023-01-23T00:57:45.208Z,99.44
2023-01-23T00:58:45.483Z,99.53
2023-01-23T01:00:06.107Z,99.25
2023-01-23T01:00:45.076Z,98.87
2023-01-23T01:01:45.140Z,99.20
2023-01-23T01:02:45.008Z,99.25
2023-01-23T01:03:44.968Z,99.34
2023-01-23T01:04:44.916Z,99.29
2023-01-23T01:06:05.896Z,99.53
2023-01-23T01:06:44.851Z,99.34
2023-01-23T01:07:44.802Z,99.25
2023-01-23T01:08:44.771Z,99.53
2023-01-23T01:09:44.721Z,99.34
2023-01-23T01:10:44.672Z,98.96
2023-01-23T01:12:05.689Z,99.53
2023-01-23T01:12:44.590Z,99.06
2023-01-23T01:13:44.551Z,99.25
2023-01-23T01:14:44.516Z,99.15
2023-01-23T01:15:44.488Z,99.53
2023-01-23T01:16:44.431Z,99.10
2023-01-23T01:18:05.400Z,99.48
2023-01-23T01:18:44.366Z,99.10
2023-01-23T01:19:44.331Z,99.25
2023-01-23T01:20:44.277Z,99.53
2023-01-23T01:21:44.237Z,99.34
2023-01-23T01:22:44.198Z,99.15
2023-01-23T01:24:05.143Z,99.10
2023-01-23T01:24:44.115Z,99.34
2023-01-23T01:25:44.083Z,99.34
2023-01-23T01:26:44.061Z,99.15
2023-01-23T01:27:44.053Z,98.87
2023-01-23T01:28:43.949Z,99.06
2023-01-23T01:30:04.908Z,99.06
2023-01-23T01:30:43.910Z,99.34
2023-01-23T01:31:43.877Z,99.34
2023-01-23T01:32:43.785Z,99.15
2023-01-23T01:33:43.797Z,99.48
2023-01-23T01:34:43.709Z,99.20
2023-01-23T01:36:04.687Z,99.48
2023-01-23T01:36:43.650Z,99.20
2023-01-23T01:37:43.590Z,99.48
2023-01-23T01:38:43.551Z,99.20
2023-01-23T01:39:43.524Z,99.48
2023-01-23T01:40:43.464Z,99.20
2023-01-23T01:42:04.453Z,99.29
2023-01-23T01:42:43.386Z,99.10
2023-01-23T01:43:43.410Z,99.01
2023-01-23T01:44:43.303Z,98.96
2023-01-23T01:45:43.285Z,98.87
2023-01-23T01:46:43.301Z,99.53
2023-01-23T01:48:04.189Z,99.15
2023-01-23T01:48:43.149Z,98.96
2023-01-23T01:49:43.121Z,99.25
2023-01-23T01:50:43.075Z,99.15
2023-01-23T01:51:43.025Z,99.34
2023-01-23T01:52:42.994Z,98.96
2023-01-23T01:54:03.947Z,99.20
2023-01-23T01:54:42.920Z,99.10
2023-01-23T01:55:42.873Z,99.39
2023-01-23T01:56:42.835Z,99.10
2023-01-23T01:57:42.802Z,99.20
2023-01-23T01:58:42.748Z,98.82
2023-01-23T02:00:03.764Z,99.39
2023-01-23T02:00:42.736Z,99.39
2023-01-23T02:01:42.677Z,99.20
2023-01-23T02:02:42.599Z,99.10
2023-01-23T02:03:42.549Z,99.58
2023-01-23T02:04:42.511Z,99.53
2023-01-23T02:06:03.453Z,99.25
2023-01-23T02:06:42.421Z,99.15
2023-01-23T02:07:42.388Z,99.10
2023-01-23T02:08:42.376Z,99.15
2023-01-23T02:09:42.307Z,99.44
2023-01-23T02:10:42.268Z,99.15
2023-01-23T02:12:03.217Z,99.34
2023-01-23T02:12:42.188Z,99.44
2023-01-23T02:13:42.141Z,99.06
2023-01-23T02:14:42.107Z,99.15
2023-01-23T02:15:42.119Z,99.15
2023-01-23T02:16:42.175Z,99.15
2023-01-23T02:18:02.998Z,99.25
2023-01-23T02:18:41.940Z,99.25
2023-01-23T02:19:41.909Z,99.06
2023-01-23T02:20:41.873Z,99.06
2023-01-23T02:21:41.823Z,99.15
2023-01-23T02:22:41.800Z,99.44
2023-01-23T02:24:02.739Z,99.06
2023-01-23T02:24:41.700Z,98.87
2023-01-23T02:25:41.654Z,99.25
2023-01-23T02:26:41.637Z,99.53
2023-01-23T02:27:41.582Z,99.63
2023-01-23T02:28:41.533Z,99.15
2023-01-23T02:30:02.492Z,98.96
2023-01-23T02:30:41.560Z,99.53
2023-01-23T02:31:41.537Z,99.25
2023-01-23T02:32:41.392Z,99.15
2023-01-23T02:33:41.346Z,99.72
2023-01-23T02:34:41.315Z,99.15
2023-01-23T02:36:02.251Z,99.15
2023-01-23T02:36:41.224Z,99.25
2023-01-23T02:37:41.180Z,99.15
2023-01-23T02:38:41.134Z,99.53
2023-01-23T02:39:41.110Z,99.53
2023-01-23T02:40:41.081Z,99.10
2023-01-23T02:42:02.015Z,99.01
2023-01-23T02:42:40.985Z,99.15
2023-01-23T02:43:40.934Z,99.25
2023-01-23T02:44:40.900Z,99.15
2023-01-23T02:45:40.886Z,99.48
2023-01-23T02:46:40.815Z,99.63
2023-01-23T02:48:01.831Z,99.25
2023-01-23T02:48:40.747Z,99.72
2023-01-23T02:49:40.724Z,99.25
2023-01-23T02:50:40.666Z,99.44
2023-01-23T02:51:40.640Z,99.25
2023-01-23T02:52:40.585Z,99.25
2023-01-23T02:54:01.553Z,99.63
2023-01-23T02:54:40.521Z,99.20
2023-01-23T02:55:40.448Z,99.20
2023-01-23T02:56:40.414Z,99.20
2023-01-23T02:57:40.404Z,99.44
2023-01-23T02:58:40.345Z,99.34
2023-01-23T03:00:01.307Z,99.34
2023-01-23T03:00:40.287Z,99.25
2023-01-23T03:01:40.220Z,99.44
2023-01-23T03:02:40.183Z,99.63
2023-01-23T03:03:40.201Z,99.44
2023-01-23T03:04:40.099Z,99.39
2023-01-23T03:06:01.046Z,99.53
2023-01-23T03:06:40.019Z,99.20
2023-01-23T03:07:39.967Z,99.63
2023-01-23T03:08:39.930Z,99.44
2023-01-23T03:09:39.897Z,99.25
2023-01-23T03:10:39.853Z,99.72
2023-01-23T03:12:00.843Z,99.44
2023-01-23T03:12:39.775Z,99.34
2023-01-23T03:13:39.726Z,99.44
2023-01-23T03:14:39.699Z,99.34
2023-01-23T03:15:39.650Z,99.25
2023-01-23T03:16:39.644Z,99.44
2023-01-23T03:18:00.560Z,99.44
2023-01-23T03:18:49.153Z,99.25
2023-01-23T03:19:39.545Z,99.25
2023-01-23T03:20:39.465Z,99.44
2023-01-23T03:21:39.428Z,99.53
2023-01-23T03:22:39.368Z,99.15
2023-01-23T03:24:00.315Z,99.63
2023-01-23T03:24:39.314Z,99.25
2023-01-23T03:25:39.244Z,99.34
2023-01-23T03:26:39.222Z,99.44
2023-01-23T03:27:39.175Z,99.44
2023-01-23T03:28:39.136Z,99.25
2023-01-23T03:30:00.080Z,99.25
2023-01-23T03:30:39.084Z,99.25
2023-01-23T03:31:39.058Z,99.53
2023-01-23T03:32:38.994Z,99.25
2023-01-23T03:33:38.932Z,99.63
2023-01-23T03:34:38.901Z,99.25
2023-01-23T03:35:59.914Z,99.44
2023-01-23T03:36:38.804Z,99.25
2023-01-23T03:37:38.769Z,99.63
2023-01-23T03:38:38.730Z,99.44
2023-01-23T03:39:38.705Z,99.63
2023-01-23T03:40:38.659Z,99.44
2023-01-23T03:41:59.601Z,99.15
2023-01-23T03:42:38.570Z,99.53
2023-01-23T03:43:38.534Z,99.53
2023-01-23T03:44:38.492Z,99.44
2023-01-23T03:45:38.491Z,99.34
2023-01-23T03:46:38.414Z,99.63
2023-01-23T03:47:59.360Z,99.44
2023-01-23T03:48:38.380Z,99.53
2023-01-23T03:49:38.283Z,99.53
2023-01-23T03:50:38.255Z,99.44
2023-01-23T03:51:38.208Z,99.34
2023-01-23T03:52:38.182Z,99.63
2023-01-23T03:53:59.110Z,99.63
2023-01-23T03:54:38.101Z,99.53
2023-01-23T03:55:38.041Z,99.34
2023-01-23T03:56:38.006Z,99.44
2023-01-23T03:57:37.965Z,99.63
2023-01-23T03:58:37.923Z,99.25
2023-01-23T03:59:58.890Z,99.53
2023-01-23T04:00:37.861Z,99.34
2023-01-23T04:01:37.798Z,99.44
2023-01-23T04:02:37.790Z,99.53
2023-01-23T04:03:37.745Z,99.63
2023-01-23T04:04:37.689Z,99.53
2023-01-23T04:05:58.650Z,99.63
2023-01-23T04:06:37.609Z,99.44
2023-01-23T04:07:37.558Z,99.53
2023-01-23T04:08:37.524Z,99.34
2023-01-23T04:09:37.479Z,99.63
2023-01-23T04:10:37.447Z,99.63
2023-01-23T04:11:58.394Z,99.63
2023-01-23T04:12:37.374Z,99.44
2023-01-23T04:13:37.329Z,99.44
2023-01-23T04:14:37.366Z,99.99
2023-01-23T04:15:37.240Z,99.53
2023-01-23T04:16:37.318Z,99.99
2023-01-23T04:17:58.170Z,99.99
2023-01-23T04:18:37.122Z,99.99
2023-01-23T04:19:37.076Z,99.34
2023-01-23T04:20:37.046Z,99.53
2023-01-23T04:21:37.004Z,99.91
2023-01-23T04:22:36.963Z,99.63
2023-01-23T04:23:57.984Z,99.34
2023-01-23T04:24:36.873Z,99.34
2023-01-23T04:25:36.839Z,99.29
2023-01-23T04:26:36.817Z,99.99
2023-01-23T04:27:36.773Z,99.99
2023-01-23T04:28:36.727Z,99.86
2023-01-23T04:29:57.674Z,99.77
2023-01-23T04:30:36.766Z,99.99
2023-01-23T04:31:36.773Z,99.96
2023-01-23T04:32:36.556Z,99.99
2023-01-23T04:33:36.570Z,99.96
2023-01-23T04:34:36.482Z,99.86
2023-01-23T04:35:57.427Z,99.99
2023-01-23T04:36:36.413Z,99.77
2023-01-23T04:37:36.357Z,99.99
2023-01-23T04:38:36.328Z,99.91
2023-01-23T04:39:36.335Z,99.82
2023-01-23T04:40:36.246Z,99.77
2023-01-23T04:41:57.214Z,99.77
2023-01-23T04:42:36.157Z,99.86
2023-01-23T04:43:36.133Z,99.99
2023-01-23T04:44:36.078Z,99.91
2023-01-23T04:45:36.028Z,99.91
2023-01-23T04:46:36.001Z,99.99
2023-01-23T04:47:56.946Z,99.91
2023-01-23T04:48:35.921Z,99.91
2023-01-23T04:49:35.879Z,99.82
2023-01-23T04:50:35.843Z,99.86
2023-01-23T04:51:35.827Z,99.82
2023-01-23T04:52:35.762Z,99.99
2023-01-23T04:53:56.714Z,99.99
2023-01-23T04:54:35.666Z,99.99
2023-01-23T04:55:35.693Z,99.82
2023-01-23T04:56:35.602Z,99.15
2023-01-23T04:57:35.559Z,99.99
2023-01-23T04:58:35.522Z,99.91
2023-01-23T04:59:56.892Z,99.99
2023-01-23T05:00:35.448Z,99.82
2023-01-23T05:01:35.469Z,99.82
2023-01-23T05:02:35.395Z,99.99
2023-01-23T05:03:35.438Z,99.99
2023-01-23T05:04:35.269Z,99.86
2023-01-23T05:05:56.233Z,99.96
2023-01-23T05:06:35.193Z,99.99
2023-01-23T05:07:35.143Z,99.82
2023-01-23T05:08:35.122Z,99.99
2023-01-23T05:09:35.062Z,99.99
2023-01-23T05:10:35.034Z,99.53
2023-01-23T05:11:56.053Z,99.91
2023-01-23T05:12:34.956Z,99.86
2023-01-23T05:13:34.905Z,99.86
2023-01-23T05:14:34.873Z,99.10
2023-01-23T05:15:34.864Z,99.63
2023-01-23T05:16:34.791Z,99.91
2023-01-23T05:17:55.747Z,99.91
2023-01-23T05:18:34.727Z,99.99
2023-01-23T05:19:34.665Z,99.99
2023-01-23T05:20:34.662Z,99.91
2023-01-23T05:21:34.581Z,99.82
2023-01-23T05:22:34.550Z,99.77
2023-01-23T05:23:55.499Z,99.99
2023-01-23T05:24:34.491Z,99.99
2023-01-23T05:25:34.426Z,99.99
2023-01-23T05:26:34.408Z,99.91
2023-01-23T05:27:34.400Z,99.91
2023-01-23T05:28:34.311Z,99.53
2023-01-23T05:29:55.255Z,99.99
2023-01-23T05:30:34.290Z,99.82
2023-01-23T05:31:34.256Z,99.53
2023-01-23T05:32:34.148Z,99.34
2023-01-23T05:33:34.120Z,99.63
2023-01-23T05:34:34.073Z,99.86
2023-01-23T05:35:55.013Z,99.91
2023-01-23T05:36:33.995Z,99.77
2023-01-23T05:37:33.940Z,99.82
2023-01-23T05:38:33.927Z,99.15
2023-01-23T05:39:33.871Z,99.34
2023-01-23T05:40:33.826Z,99.96
2023-01-23T05:41:54.787Z,99.39
2023-01-23T05:42:33.748Z,99.67
2023-01-23T05:43:33.768Z,99.58
2023-01-23T05:44:33.686Z,99.29
2023-01-23T05:45:33.615Z,99.99
2023-01-23T05:46:33.696Z,99.48
2023-01-23T05:47:54.549Z,99.99
2023-01-23T05:48:33.509Z,99.86
2023-01-23T05:49:33.459Z,99.86
2023-01-23T05:50:34.570Z,99.86
2023-01-23T05:51:33.401Z,99.86
2023-01-23T05:52:33.345Z,99.99
2023-01-23T05:53:54.301Z,99.86
2023-01-23T05:54:33.265Z,99.86
2023-01-23T05:55:33.214Z,99.86
2023-01-23T05:56:33.174Z,99.86
2023-01-23T05:57:33.146Z,99.86
2023-01-23T05:58:33.099Z,99.58
2023-01-23T05:59:54.121Z,99.48
2023-01-23T06:00:33.042Z,99.86
2023-01-23T06:01:32.975Z,99.77
2023-01-23T06:02:32.986Z,99.99
2023-01-23T06:03:32.908Z,99.99
2023-01-23T06:04:32.861Z,99.96
2023-01-23T06:05:53.822Z,99.86
2023-01-23T06:06:32.784Z,99.86
2023-01-23T06:07:32.732Z,99.99
2023-01-23T06:08:32.730Z,99.86
2023-01-23T06:09:32.651Z,99.96
2023-01-23T06:10:32.626Z,99.77
2023-01-23T06:11:53.565Z,99.77
2023-01-23T06:12:32.538Z,99.96
2023-01-23T06:13:32.496Z,99.99
2023-01-23T06:14:32.489Z,99.86
2023-01-23T06:15:32.492Z,99.48
2023-01-23T06:16:32.378Z,99.96
2023-01-23T06:17:53.391Z,99.86
2023-01-23T06:18:32.307Z,99.77
2023-01-23T06:19:32.259Z,99.77
2023-01-23T06:20:32.205Z,99.86
2023-01-23T06:21:32.196Z,99.99
2023-01-23T06:22:32.135Z,99.86
2023-01-23T06:23:53.087Z,99.29
2023-01-23T06:24:32.064Z,99.48
2023-01-23T06:25:32.021Z,99.99
2023-01-23T06:26:31.965Z,99.91
2023-01-23T06:27:31.939Z,99.99
2023-01-23T06:28:31.901Z,99.53
2023-01-23T06:29:52.856Z,99.91
2023-01-23T06:30:31.837Z,99.99
2023-01-23T06:31:32.036Z,99.99
2023-01-23T06:32:31.731Z,99.91
2023-01-23T06:33:31.692Z,99.29
2023-01-23T06:34:31.651Z,99.58
2023-01-23T06:35:52.605Z,99.58
2023-01-23T06:36:31.588Z,99.67
2023-01-23T06:37:31.541Z,99.96
2023-01-23T06:38:31.525Z,99.77
2023-01-23T06:39:31.455Z,99.48
2023-01-23T06:40:31.425Z,99.53
2023-01-23T06:41:52.370Z,99.99
2023-01-23T06:42:31.331Z,99.77
2023-01-23T06:43:31.301Z,99.99
2023-01-23T06:44:31.243Z,99.86
2023-01-23T06:45:31.209Z,99.72
2023-01-23T06:46:31.189Z,99.53
2023-01-23T06:47:52.177Z,99.99
2023-01-23T06:48:31.080Z,99.58
2023-01-23T06:49:31.060Z,99.29
2023-01-23T06:50:31.003Z,99.82
2023-01-23T06:51:30.967Z,99.99
2023-01-23T06:52:30.931Z,99.34
2023-01-23T06:53:51.877Z,99.99
2023-01-23T06:54:30.846Z,99.34
2023-01-23T06:55:30.811Z,99.44
2023-01-23T06:56:30.780Z,99.53
2023-01-23T06:57:30.741Z,99.44
2023-01-23T06:58:30.676Z,99.99
2023-01-23T06:59:51.644Z,99.72
2023-01-23T07:00:30.628Z,99.72
2023-01-23T07:01:30.591Z,99.82
2023-01-23T07:02:30.527Z,99.48
2023-01-23T07:03:30.552Z,99.72
2023-01-23T07:04:30.431Z,99.34
2023-01-23T07:05:51.408Z,99.53
2023-01-23T07:06:30.362Z,99.82
2023-01-23T07:07:30.341Z,99.99
2023-01-23T07:08:30.275Z,99.34
2023-01-23T07:09:30.255Z,99.15
2023-01-23T07:10:30.271Z,99.53
2023-01-23T07:11:51.167Z,99.99
2023-01-23T07:12:30.139Z,99.34
2023-01-23T07:13:30.088Z,99.72
2023-01-23T07:14:30.039Z,99.44
2023-01-23T07:15:29.998Z,99.63
2023-01-23T07:16:30.046Z,99.44
2023-01-23T07:17:50.971Z,99.53
2023-01-23T07:18:29.874Z,99.53
2023-01-23T07:19:29.896Z,99.44
2023-01-23T07:20:29.855Z,99.53
2023-01-23T07:21:29.757Z,99.63
2023-01-23T07:22:29.719Z,99.72
2023-01-23T07:23:50.685Z,99.82
2023-01-23T07:24:29.640Z,99.72
2023-01-23T07:25:29.613Z,99.25
2023-01-23T07:26:29.560Z,99.44
2023-01-23T07:27:29.518Z,99.44
2023-01-23T07:28:29.480Z,99.25
2023-01-23T07:29:50.453Z,99.25
2023-01-23T07:30:29.553Z,99.25
2023-01-23T07:31:29.391Z,99.34
2023-01-23T07:32:29.717Z,99.44
2023-01-23T07:33:29.275Z,99.25
2023-01-23T07:34:29.239Z,99.63
2023-01-23T07:35:50.251Z,99.63
2023-01-23T07:36:29.165Z,99.25
2023-01-23T07:37:29.128Z,99.44
2023-01-23T07:38:29.065Z,99.53
2023-01-23T07:39:29.050Z,99.25
2023-01-23T07:40:29.001Z,99.44
2023-01-23T07:41:49.975Z,99.34
2023-01-23T07:42:28.916Z,99.44
2023-01-23T07:43:28.873Z,99.53
2023-01-23T07:44:28.835Z,99.44
2023-01-23T07:45:28.801Z,99.44
2023-01-23T07:46:28.762Z,99.63
2023-01-23T07:47:49.715Z,99.72
2023-01-23T07:48:28.664Z,99.82
2023-01-23T07:49:28.637Z,99.34
2023-01-23T07:50:28.594Z,99.34
2023-01-23T07:51:28.664Z,99.44
2023-01-23T07:52:28.655Z,99.72
2023-01-23T07:53:49.475Z,99.44
2023-01-23T07:54:28.436Z,99.63
2023-01-23T07:55:28.401Z,99.53
2023-01-23T07:56:28.360Z,99.63
2023-01-23T07:57:28.313Z,99.63
2023-01-23T07:58:28.298Z,99.44
2023-01-23T07:59:49.226Z,99.53
2023-01-23T08:00:29.912Z,99.25
2023-01-23T08:01:28.157Z,99.63
2023-01-23T08:02:28.136Z,99.72
2023-01-23T08:03:28.279Z,99.34
2023-01-23T08:04:28.045Z,99.44
2023-01-23T08:05:48.999Z,99.72
2023-01-23T08:06:27.953Z,99.53
2023-01-23T08:07:27.989Z,99.63
2023-01-23T08:08:27.877Z,99.34
2023-01-23T08:09:27.836Z,99.25
2023-01-23T08:10:27.867Z,99.63
2023-01-23T08:11:48.762Z,99.63
2023-01-23T08:12:27.724Z,99.44
2023-01-23T08:13:27.691Z,99.44
2023-01-23T08:14:27.641Z,99.44
2023-01-23T08:15:27.610Z,99.63
2023-01-23T08:16:27.585Z,99.91
2023-01-23T08:17:48.535Z,99.72
2023-01-23T08:18:27.472Z,99.25
2023-01-23T08:19:27.480Z,99.72
2023-01-23T08:20:27.517Z,99.99
2023-01-23T08:21:27.359Z,99.34
2023-01-23T08:22:27.323Z,99.44
2023-01-23T08:23:48.346Z,99.44
2023-01-23T08:24:27.222Z,99.63
2023-01-23T08:25:27.189Z,99.34
2023-01-23T08:26:27.155Z,99.53
2023-01-23T08:27:27.119Z,99.63
2023-01-23T08:28:27.091Z,99.34
2023-01-23T08:29:48.025Z,99.25
2023-01-23T08:30:27.025Z,99.25
2023-01-23T08:31:27.029Z,99.25
2023-01-23T08:32:26.903Z,99.53
2023-01-23T08:33:26.896Z,99.72
2023-01-23T08:34:26.875Z,99.34
2023-01-23T08:35:47.799Z,99.63
2023-01-23T08:36:26.763Z,99.72
2023-01-23T08:37:26.720Z,99.72
2023-01-23T08:38:26.667Z,99.53
2023-01-23T08:39:26.754Z,99.82
2023-01-23T08:40:26.599Z,99.63
2023-01-23T08:41:47.544Z,99.63
2023-01-23T08:42:26.513Z,99.44
2023-01-23T08:43:26.476Z,99.44
2023-01-23T08:44:26.448Z,99.44
2023-01-23T08:45:26.453Z,99.44
2023-01-23T08:46:26.352Z,99.25
2023-01-23T08:47:47.312Z,99.63
2023-01-23T08:48:26.274Z,99.63
2023-01-23T08:49:26.251Z,99.25
2023-01-23T08:50:26.200Z,99.82
2023-01-23T08:51:26.196Z,99.72
2023-01-23T08:52:26.116Z,99.63
2023-01-23T08:53:47.077Z,99.15
2023-01-23T08:54:26.044Z,99.15
2023-01-23T08:55:26.060Z,99.34
2023-01-23T08:56:25.963Z,99.25
2023-01-23T08:57:25.915Z,99.53
2023-01-23T08:58:25.885Z,99.63
2023-01-23T08:59:46.831Z,99.72
2023-01-23T09:00:25.802Z,99.34
2023-01-23T09:01:25.804Z,99.44
2023-01-23T09:02:25.779Z,99.63
2023-01-23T09:03:25.697Z,99.63
2023-01-23T09:04:25.639Z,99.15
2023-01-23T09:05:46.600Z,99.11
2023-01-23T09:06:25.553Z,99.30
2023-01-23T09:07:25.525Z,99.53
2023-01-23T09:08:25.494Z,99.20
2023-01-23T09:09:25.439Z,99.34
2023-01-23T09:10:25.403Z,99.25
2023-01-23T09:11:46.401Z,99.68
2023-01-23T09:12:25.328Z,99.25
2023-01-23T09:13:25.284Z,99.99
2023-01-23T09:14:25.245Z,99.30
2023-01-23T09:15:25.212Z,99.11
2023-01-23T09:16:25.176Z,99.11
2023-01-23T09:17:46.130Z,99.30
2023-01-23T09:18:25.086Z,99.20
2023-01-23T09:19:25.055Z,99.39
2023-01-23T09:20:25.003Z,99.39
2023-01-23T09:21:24.987Z,99.49
2023-01-23T09:22:24.920Z,99.58
2023-01-23T09:23:45.863Z,99.39
2023-01-23T09:24:24.850Z,99.39
2023-01-23T09:25:24.807Z,99.39
2023-01-23T09:26:24.769Z,99.39
2023-01-23T09:27:24.784Z,99.49
2023-01-23T09:28:24.683Z,99.39
2023-01-23T09:29:45.642Z,99.58
2023-01-23T09:30:24.722Z,99.20
2023-01-23T09:31:24.588Z,99.68
2023-01-23T09:32:24.652Z,99.11
2023-01-23T09:33:24.594Z,99.39
2023-01-23T09:34:24.452Z,99.39
2023-01-23T09:35:45.409Z,99.01
2023-01-23T09:36:41.283Z,99.01
2023-01-23T09:37:24.345Z,99.11
2023-01-23T09:38:24.291Z,99.20
2023-01-23T09:39:24.260Z,99.39
2023-01-23T09:40:24.228Z,99.39
2023-01-23T09:41:45.201Z,99.30
2023-01-23T09:42:24.124Z,99.20
2023-01-23T09:43:24.149Z,99.30
2023-01-23T09:44:24.056Z,99.39
2023-01-23T09:45:24.016Z,99.11
2023-01-23T09:46:23.963Z,99.39
2023-01-23T09:47:44.942Z,99.30
2023-01-23T09:48:23.902Z,99.68
2023-01-23T09:49:23.842Z,99.58
2023-01-23T09:50:23.928Z,99.39
2023-01-23T09:51:23.840Z,99.30
2023-01-23T09:52:23.735Z,99.39
2023-01-23T09:53:44.698Z,99.49
2023-01-23T09:54:23.671Z,99.20
2023-01-23T09:55:23.602Z,99.87
2023-01-23T09:56:23.589Z,99.68
2023-01-23T09:57:23.543Z,99.39
2023-01-23T09:58:23.498Z,99.20
2023-01-23T09:59:58.335Z,99.68
2023-01-23T10:00:23.581Z,99.39
2023-01-23T10:01:23.415Z,99.68
2023-01-23T10:02:25.840Z,99.77
2023-01-23T10:03:23.296Z,99.20
2023-01-23T10:04:23.244Z,99.99
2023-01-23T10:05:44.212Z,99.30
2023-01-23T10:06:23.183Z,99.30
2023-01-23T10:07:23.135Z,99.68
2023-01-23T10:08:23.100Z,99.77
2023-01-23T10:09:23.071Z,99.20
2023-01-23T10:10:23.314Z,99.39
2023-01-23T10:11:43.985Z,99.39
2023-01-23T10:12:22.926Z,99.58
2023-01-23T10:13:22.955Z,99.39
2023-01-23T10:14:22.860Z,99.49
2023-01-23T10:15:23.094Z,99.30
2023-01-23T10:16:22.883Z,99.01
2023-01-23T10:17:43.745Z,99.39
2023-01-23T10:18:22.691Z,99.30
2023-01-23T10:19:22.667Z,99.30
2023-01-23T10:20:22.895Z,99.68
2023-01-23T10:21:22.576Z,99.49
2023-01-23T10:22:23.297Z,99.49
2023-01-23T10:23:43.509Z,99.20
2023-01-23T10:24:23.709Z,99.20
2023-01-23T10:25:22.814Z,99.58
2023-01-23T10:26:22.387Z,99.39
2023-01-23T10:27:22.342Z,99.39
2023-01-23T10:28:22.339Z,99.49
2023-01-23T10:29:43.264Z,99.58
2023-01-23T10:30:22.577Z,99.68
2023-01-23T10:31:22.390Z,99.39
2023-01-23T10:32:22.148Z,99.44
2023-01-23T10:33:22.101Z,99.68
2023-01-23T10:34:22.084Z,99.58
2023-01-23T10:35:43.026Z,99.58
2023-01-23T10:36:24.035Z,99.58
2023-01-23T10:37:21.946Z,99.77
2023-01-23T10:38:21.923Z,99.49
2023-01-23T10:39:21.863Z,99.63
2023-01-23T10:40:22.105Z,99.35
2023-01-23T10:41:44.441Z,99.68
2023-01-23T10:42:21.765Z,99.68
2023-01-23T10:43:21.716Z,99.44
2023-01-23T10:44:21.680Z,99.54
2023-01-23T10:45:21.997Z,99.44
2023-01-23T10:46:21.688Z,99.44
2023-01-23T10:47:43.180Z,99.91
2023-01-23T10:48:21.518Z,99.54
2023-01-23T10:49:21.481Z,99.54
2023-01-23T10:50:21.450Z,99.63
2023-01-23T10:51:21.450Z,99.54
2023-01-23T10:52:21.460Z,99.63
2023-01-23T10:53:42.315Z,99.35
2023-01-23T10:54:33.070Z,99.44
2023-01-23T10:55:21.537Z,99.35
2023-01-23T10:56:21.205Z,99.44
2023-01-23T10:57:21.173Z,99.35
2023-01-23T10:58:21.127Z,99.63
2023-01-23T10:59:42.091Z,99.54
2023-01-23T11:00:21.064Z,99.54
2023-01-23T11:01:21.080Z,99.82
2023-01-23T11:02:22.164Z,99.26
2023-01-23T11:03:21.053Z,99.06
2023-01-23T11:04:20.896Z,99.06
2023-01-23T11:05:52.554Z,99.54
2023-01-23T11:06:20.803Z,99.44
2023-01-23T11:07:20.765Z,99.35
2023-01-23T11:08:20.723Z,99.73
2023-01-23T11:09:20.681Z,99.44
2023-01-23T11:10:20.685Z,99.35
2023-01-23T11:11:41.608Z,99.63
2023-01-23T11:12:20.578Z,99.73
2023-01-23T11:13:20.559Z,98.97
2023-01-23T11:14:20.532Z,99.06
2023-01-23T11:15:20.731Z,99.06
2023-01-23T11:16:20.462Z,99.73
2023-01-23T11:17:41.384Z,98.87
2023-01-23T11:18:20.339Z,98.97
2023-01-23T11:19:20.366Z,98.97
2023-01-23T11:20:20.267Z,99.26
2023-01-23T11:21:20.215Z,98.97
2023-01-23T11:22:20.188Z,98.97
2023-01-23T11:23:41.129Z,99.26
2023-01-23T11:24:27.551Z,98.78
2023-01-23T11:25:20.360Z,98.97
2023-01-23T11:26:20.025Z,99.44
2023-01-23T11:27:19.991Z,99.06
2023-01-23T11:28:19.979Z,99.16
2023-01-23T11:29:40.945Z,98.78
2023-01-23T11:30:19.931Z,99.35
2023-01-23T11:31:19.934Z,99.06
2023-01-23T11:32:19.920Z,99.16
2023-01-23T11:33:19.749Z,99.26
2023-01-23T11:34:19.960Z,98.87
2023-01-23T11:35:40.732Z,98.78
2023-01-23T11:36:19.649Z,98.97
2023-01-23T11:37:19.597Z,98.87
2023-01-23T11:38:27.199Z,98.97
2023-01-23T11:39:19.509Z,98.78
2023-01-23T11:40:19.489Z,98.68
2023-01-23T11:41:40.440Z,98.11
2023-01-23T11:42:19.413Z,98.02
2023-01-23T11:43:19.361Z,98.40
2023-01-23T11:44:20.106Z,98.59
2023-01-23T11:45:19.686Z,98.40
2023-01-23T11:46:19.262Z,98.21
2023-01-23T11:47:40.199Z,98.26
2023-01-23T11:48:19.171Z,98.45
2023-01-23T11:49:19.134Z,97.88
2023-01-23T11:50:19.128Z,98.49
2023-01-23T11:51:19.138Z,98.07
2023-01-23T11:52:19.011Z,97.97
2023-01-23T11:53:42.908Z,97.97
2023-01-23T11:54:18.945Z,98.07
2023-01-23T11:55:19.053Z,97.12
2023-01-23T11:56:18.855Z,97.31
2023-01-23T11:57:18.821Z,98.07
2023-01-23T11:58:18.783Z,98.07
2023-01-23T11:59:39.742Z,97.97
2023-01-23T12:00:19.149Z,97.97
2023-01-23T12:01:18.653Z,97.60
2023-01-23T12:02:18.653Z,97.50
2023-01-23T12:03:18.589Z,97.12
2023-01-23T12:04:18.604Z,97.69
2023-01-23T12:05:39.502Z,97.31
2023-01-23T12:06:20.325Z,97.31
2023-01-23T12:07:18.492Z,97.41
2023-01-23T12:08:18.379Z,97.50
2023-01-23T12:09:18.348Z,97.02
2023-01-23T12:10:18.327Z,97.12
2023-01-23T12:11:39.323Z,97.31
2023-01-23T12:12:18.247Z,97.31
2023-01-23T12:13:18.211Z,97.22
2023-01-23T12:14:18.171Z,96.55
2023-01-23T12:15:18.151Z,96.64
2023-01-23T12:16:18.193Z,97.41
2023-01-23T12:17:39.045Z,96.83
2023-01-23T12:18:17.993Z,96.83
2023-01-23T12:19:17.955Z,96.93
2023-01-23T12:20:17.935Z,96.55
2023-01-23T12:21:17.887Z,97.31
2023-01-23T12:22:17.842Z,96.64
2023-01-23T12:23:39.275Z,96.55
2023-01-23T12:24:17.797Z,96.83
2023-01-23T12:25:17.755Z,97.22
2023-01-23T12:26:17.697Z,96.83
2023-01-23T12:27:17.674Z,96.93
2023-01-23T12:28:18.145Z,96.83
2023-01-23T12:29:38.562Z,96.45
2023-01-23T12:30:17.541Z,96.55
2023-01-23T12:31:17.608Z,96.74
2023-01-23T12:32:17.605Z,97.12
2023-01-23T12:33:17.439Z,96.83
2023-01-23T12:34:17.403Z,96.83
2023-01-23T12:35:38.358Z,96.74
2023-01-23T12:36:17.310Z,96.74
2023-01-23T12:37:29.825Z,96.36
2023-01-23T12:38:17.248Z,96.36
2023-01-23T12:39:17.281Z,96.64
2023-01-23T12:40:17.137Z,96.74
2023-01-23T12:41:38.103Z,96.36
2023-01-23T12:42:17.066Z,97.12
2023-01-23T12:43:17.059Z,96.93
2023-01-23T12:44:17.015Z,96.64
2023-01-23T12:45:16.959Z,96.74
2023-01-23T12:46:16.955Z,96.17
2023-01-23T12:47:37.866Z,96.17
2023-01-23T12:48:16.847Z,95.84
2023-01-23T12:49:16.803Z,95.60
2023-01-23T12:50:16.765Z,95.89
2023-01-23T12:51:16.776Z,95.31